Latest Weather Observations for Camooweal

IDQ60801

Issued at 1:32 pm EST Tuesday 28 June 2016 (issued every 30 minutes, with the page automatically refreshed every 10 minutes)

About weather observations | Map of weather stations | Latest weather observations for QLD | Other Formats
Station Details ID: 037010 Name: CAMOOWEAL TOWNSHIP Lat: -19.92 Lon: 138.12 Height: 231.2 m
Data from the previous 72 hours. | See also: Recent months at Camooweal
Date/Time
EST
Temp
°C
App
Temp
°C
Dew
Point
°C
Rel
Hum
%
Delta-T
°C
Wind Press
QNH
hPa
Press
MSL
hPa
Rain since
9am
mm
Dir  Spd
km/h
Gust
km/h
Spd
kts
Gust
kts
28/01:30pm 19.6 15.7 5.3 39 7.1 SSE 15 24 8 13 1021.8 1021.3 0.0
28/01:00pm 18.7 14.1 5.5 42 6.5 SSE 19 28 10 15 1022.4 1021.9 0.0
28/12:30pm 18.7 15.1 6.9 46 6.0 SSE 15 22 8 12 1022.9 1022.4 0.0
28/12:00pm 17.3 13.8 7.1 51 5.1 SSE 15 20 8 11 1023.2 1022.7 0.0
28/11:30am 16.4 12.7 6.5 52 4.9 SE 15 19 8 10 1023.4 1022.9 0.0
28/11:00am 15.2 11.1 6.2 55 4.4 SE 17 24 9 13 1023.7 1023.3 0.0
28/10:30am 14.4 10.4 6.5 59 3.9 SE 17 24 9 13 1023.9 1023.5 0.0
28/10:00am 13.7 9.1 6.6 62 3.4 SE 20 26 11 14 1023.8 1023.4 0.0
28/09:30am 12.8 8.2 6.6 66 3.0 SE 20 28 11 15 1023.6 1023.2 0.0
28/09:00am 11.2 6.1 6.1 71 2.4 SE 22 30 12 16 1023.4 1022.9 0.0
28/08:30am 10.4 5.8 6.5 77 1.8 SSE 20 30 11 16 1023.1 1022.6 0.0
28/08:00am 9.2 5.6 6.6 84 1.2 SSE 15 22 8 12 1022.8 1022.3 0.0
28/07:30am 8.5 4.8 6.3 86 1.0 SSE 15 19 8 10 1022.6 1022.1 0.0
28/07:00am 8.7 5.4 6.5 86 1.0 SSE 13 19 7 10 1022.3 1021.8 0.0
28/06:30am 8.8 4.7 6.3 84 1.2 S 17 20 9 11 1022.0 1021.5 0.0
28/06:00am 9.1 5.4 6.4 83 1.3 S 15 19 8 10 1021.8 1021.3 0.0
28/05:30am 9.5 5.8 6.4 81 1.5 S 15 19 8 10 1021.8 1021.3 0.0
28/05:00am 9.7 6.0 6.4 80 1.5 SSE 15 20 8 11 1021.9 1021.4 0.0
28/04:30am 10.0 6.3 6.5 79 1.7 S 15 20 8 11 1021.8 1021.3 0.0
28/04:00am 10.5 6.5 6.6 77 1.8 S 17 24 9 13 1021.8 1021.3 0.0
28/03:30am 10.9 6.9 6.6 75 2.1 SSE 17 24 9 13 1022.0 1021.5 0.0
28/03:00am 11.3 6.9 6.6 73 2.2 SSE 19 24 10 13 1022.2 1021.7 0.0
28/02:30am 11.5 7.5 6.6 72 2.3 SSE 17 26 9 14 1022.6 1022.1 0.0
28/02:00am 12.0 7.6 6.7 70 2.5 SSE 19 26 10 14 1022.5 1022.0 0.0
28/01:30am 12.5 8.2 6.8 68 2.8 SSE 19 24 10 13 1022.4 1021.9 0.0
28/01:00am 12.3 8.7 6.8 69 2.7 SSE 15 22 8 12 1022.4 1021.9 0.0
28/12:30am 12.5 8.8 6.5 67 2.9 SSE 15 22 8 12 1022.3 1021.8 0.0
28/12:00am 13.1 9.1 6.7 65 3.1 SSE 17 24 9 13 1022.3 1021.8 0.0
 
Date/Time
EST
Temp
°C
App
Temp
°C
Dew
Point
°C
Rel
Hum
%
Delta-T
°C
Wind Press
QNH
hPa
Press
MSL
hPa
Rain since
9am
mm
Dir  Spd
km/h
Gust
km/h
Spd
kts
Gust
kts
27/11:30pm 13.5 9.5 6.6 63 3.4 SSE 17 24 9 13 1022.2 1021.7 0.0
27/11:00pm 13.8 9.8 6.7 62 3.5 S 17 24 9 13 1022.3 1021.8 0.0
27/10:30pm 14.1 10.2 6.9 62 3.5 S 17 26 9 14 1022.3 1021.8 0.0
27/10:00pm 14.5 11.0 7.3 62 3.6 S 15 20 8 11 1022.1 1021.6 0.0
27/09:30pm 14.9 11.4 7.2 60 3.8 S 15 20 8 11 1021.9 1021.4 0.0
27/09:00pm 15.6 11.8 7.4 58 4.1 S 17 22 9 12 1021.7 1021.2 0.0
27/08:30pm 16.1 12.2 7.3 56 4.4 S 17 22 9 12 1021.5 1021.0 0.0
27/08:00pm 16.7 12.5 7.4 54 4.7 S 19 24 10 13 1021.1 1020.6 0.0
27/07:30pm 17.3 13.1 7.4 52 5.0 S 19 24 10 13 1020.6 1020.1 0.0
27/07:00pm 17.7 14.0 8.0 53 5.0 SSE 17 24 9 13 1020.3 1019.8 0.0
27/06:30pm 18.5 14.5 8.2 51 5.4 SSE 19 24 10 13 1020.0 1019.5 0.0
27/06:00pm 19.2 14.2 8.2 49 5.7 SSE 24 32 13 17 1019.4 1018.9 0.0
27/05:30pm 19.9 15.0 8.3 47 6.1 SSE 24 30 13 16 1019.1 1018.6 0.0
27/05:00pm 20.6 15.8 8.9 47 6.2 SSE 24 32 13 17 1018.8 1018.3 0.0
27/04:30pm 21.0 15.9 9.3 47 6.3 S 26 37 14 20 1018.5 1018.0 0.0
27/04:00pm 20.9 15.7 8.9 46 6.4 SSE 26 35 14 19 1018.4 1017.9 0.0
27/03:30pm 21.4 15.9 9.3 46 6.5 SSE 28 41 15 22 1018.2 1017.7 0.0
27/03:00pm 21.3 16.0 9.9 48 6.2 SSE 28 39 15 21 1018.4 1017.9 0.0
27/02:30pm 20.9 15.8 9.2 47 6.3 SSE 26 41 14 22 1018.8 1018.3 0.0
27/02:00pm 20.5 15.2 10.0 51 5.7 SSE 28 39 15 21 1019.2 1018.7 0.0
27/01:30pm 19.9 14.3 10.3 54 5.2 S 30 39 16 21 1019.6 1019.1 0.0
27/01:00pm 19.5 13.9 10.2 55 5.0 SSE 30 43 16 23 1020.5 1020.0 0.0
27/12:30pm 18.9 13.8 10.5 58 4.6 SSE 28 41 15 22 1020.9 1020.4 0.0
27/12:00pm 18.7 13.3 10.8 60 4.3 S 30 43 16 23 1021.1 1020.6 0.0
27/11:30am 17.5 12.0 10.4 63 3.8 SSE 30 43 16 23 1021.2 1020.7 0.0
27/11:00am 17.0 11.5 10.6 66 3.4 SSE 30 43 16 23 1021.3 1020.8 0.0
27/10:30am 16.2 10.6 10.3 68 3.2 SSE 30 39 16 21 1021.4 1020.9 0.0
27/10:00am 15.6 10.1 10.4 71 2.8 SSE 30 43 16 23 1021.4 1020.9 0.0
27/09:30am 15.8 10.4 10.8 72 2.7 SSE 30 43 16 23 1021.2 1020.7 0.0
27/09:00am 14.6 8.6 10.2 75 2.3 SSE 32 41 17 22 1021.0 1020.5 0.0
27/08:30am 14.2 8.7 10.6 79 1.9 S 30 39 16 21 1020.7 1020.2 0.0
27/08:00am 14.1 9.4 10.7 80 1.8 S 26 39 14 21 1020.1 1019.6 0.0
27/07:30am 13.5 8.8 10.7 83 1.5 SSE 26 35 14 19 1019.8 1019.2 0.0
27/07:00am 13.4 7.5 10.4 82 1.6 S 32 43 17 23 1019.2 1018.7 0.0
27/06:40am 13.5 8.3 10.3 81 1.7 S 28 46 15 25 1019.0 1018.5 0.0
27/06:30am 13.7 8.1 10.3 80 1.8 S 30 43 16 23 1018.8 1018.3 0.0
27/06:00am 13.9 9.0 10.1 78 2.0 S 26 33 14 18 1018.3 1017.8 0.0
27/05:30am 14.4 8.8 10.0 75 2.3 S 30 41 16 22 1017.9 1017.4 0.0
27/05:00am 14.7 9.4 9.9 73 2.5 S 28 41 15 22 1017.7 1017.2 0.0
27/04:30am 15.1 9.0 9.9 71 2.7 S 32 44 17 24 1017.5 1017.0 0.0
27/04:00am 15.6 9.1 9.1 65 3.4 S 33 44 18 24 1017.3 1016.8 0.0
27/03:30am 16.3 10.9 7.8 57 4.3 S 26 35 14 19 1017.0 1016.5 0.0
27/03:00am 16.9 11.4 7.5 54 4.8 S 26 33 14 18 1017.0 1016.5 0.0
27/02:30am 17.5 11.6 7.5 52 5.1 S 28 39 15 21 1017.0 1016.5 0.0
27/02:00am 18.0 13.0 8.0 52 5.2 S 24 33 13 18 1017.1 1016.6 0.0
27/01:30am 18.3 13.7 8.3 52 5.2 S 22 30 12 16 1016.9 1016.4 0.0
27/01:00am 19.0 14.7 9.5 54 5.1 S 22 32 12 17 1016.7 1016.2 0.0
27/12:30am 19.8 16.1 10.2 54 5.2 S 20 30 11 16 1016.4 1015.9 0.0
27/12:00am 20.9 17.4 11.0 53 5.5 SSE 20 35 11 19 1016.0 1015.4 0.0
 
Date/Time
EST
Temp
°C
App
Temp
°C
Dew
Point
°C
Rel
Hum
%
Delta-T
°C
Wind Press
QNH
hPa
Press
MSL
hPa
Rain since
9am
mm
Dir  Spd
km/h
Gust
km/h
Spd
kts
Gust
kts
26/11:30pm 21.6 18.4 11.9 54 5.5 SSE 20 28 11 15 1015.6 1015.0 0.0
26/11:00pm 21.3 20.7 12.4 57 5.1 S 7 9 4 5 1014.8 1014.3 0.0
26/10:30pm 21.9 21.4 12.2 54 5.5 S 6 7 3 4 1014.7 1014.2 0.0
26/10:00pm 21.8 22.2 12.4 55 5.4 WSW 2 6 1 3 1014.6 1014.1 0.0
26/09:30pm 21.6 21.4 11.9 54 5.5 WSW 4 6 2 3 1014.4 1013.9 0.0
26/09:00pm 22.8 22.1 11.5 49 6.4 WSW 6 7 3 4 1014.1 1013.6 0.0
26/08:30pm 22.7 22.3 12.3 52 6.0 W 6 9 3 5 1013.9 1013.4 0.0
26/08:00pm 23.2 23.8 11.9 49 6.4 CALM 0 6 0 3 1013.5 1013.0 0.0
26/07:30pm 25.2 24.9 11.4 42 7.9 NW 4 6 2 3 1013.0 1012.5 0.0
26/07:00pm 26.2 25.3 10.8 38 8.8 NW 6 7 3 4 1012.5 1012.0 0.0
26/06:30pm 27.9 26.6 10.1 33 10.1 NW 7 9 4 5 1012.3 1011.7 0.0
26/06:00pm 29.4 28.1 10.0 30 11.1 NW 7 9 4 5 1012.1 1011.5 0.0
26/05:30pm 31.0 28.9 9.8 27 12.1 WNW 11 20 6 11 1012.0 1011.4 0.0
26/05:00pm 31.5 29.1 10.2 27 12.3 WNW 13 20 7 11 1011.7 1011.1 0.0
26/04:30pm 31.6 29.1 9.8 26 12.5 NW 13 20 7 11 1011.8 1011.2 0.0
26/04:00pm 31.6 29.5 9.8 26 12.5 NW 11 22 6 12 1011.8 1011.2 0.0
26/03:30pm 31.3 28.5 10.1 27 12.2 NW 15 24 8 13 1011.9 1011.3 0.0
26/03:00pm 31.3 29.1 9.5 26 12.4 NW 11 22 6 12 1012.1 1011.5 0.0
26/02:30pm 30.6 28.0 9.5 27 12.0 NW 13 20 7 11 1012.4 1011.9 0.0
26/02:00pm 30.2 27.2 9.1 27 11.9 NNW 15 26 8 14 1012.9 1012.4 0.0
26/01:30pm 29.9 26.9 9.4 28 11.6 NW 15 22 8 12 1013.5 1013.0 0.0
26/01:00pm 29.5 27.2 9.1 28 11.4 NW 11 20 6 11 1014.2 1013.7 0.0
26/12:30pm 28.5 26.5 8.7 29 11.0 NW 9 15 5 8 1014.7 1014.2 0.0
26/12:00pm 27.7 24.9 8.6 30 10.5 NNW 13 19 7 10 1015.3 1014.7 0.0
26/11:30am 27.2 24.2 7.6 29 10.6 N 13 19 7 10 1015.8 1015.2 0.0
26/11:00am 26.0 22.9 7.1 30 10.1 NNE 13 20 7 11 1016.0 1015.4 0.0
26/10:30am 24.5 20.9 6.7 32 9.3 NNE 15 20 8 11 1016.2 1015.7 0.0
26/10:00am 23.6 21.2 6.8 34 8.8 NE 9 13 5 7 1016.4 1015.9 0.0
26/09:30am 21.8 19.0 6.9 38 7.7 NE 11 15 6 8 1016.3 1015.8 0.0
26/09:00am 19.8 16.8 7.5 45 6.4 NE 13 17 7 9 1016.0 1015.4 0.0
26/08:30am 17.9 16.5 8.7 55 4.8 NNE 6 11 3 6 1016.1 1015.5 0.0
26/08:00am 15.3 15.4 10.3 72 2.7 CALM 0 0 0 0 1016.0 1015.4 0.0
26/07:30am 14.6 14.6 9.8 73 2.5 CALM 0 0 0 0 1015.7 1015.1 0.0
26/07:00am 15.3 13.8 8.5 64 3.5 SE 6 9 3 5 1015.0 1014.5 0.0
26/06:30am 16.6 13.3 8.1 57 4.4 NE 15 20 8 11 1014.1 1013.6 0.0
26/06:00am 15.5 14.0 9.2 66 3.3 NNE 7 11 4 6 1014.4 1013.9 0.0
26/05:30am 15.8 13.3 9.7 67 3.2 NNE 13 17 7 9 1014.2 1013.7 0.0
26/05:00am 13.7 14.2 11.6 87 1.1 CALM 0 0 0 0 1014.9 1014.4 0.0
26/04:30am 13.3 13.6 11.0 86 1.2 CALM 0 0 0 0 1015.0 1014.5 0.0
26/04:00am 13.6 12.8 11.0 84 1.4 SW 6 9 3 5 1014.8 1014.3 0.0
26/03:30am 14.6 15.0 11.2 80 1.8 CALM 0 0 0 0 1014.8 1014.3 0.0
26/03:00am 15.5 14.0 10.7 73 2.6 N 9 11 5 6 1014.7 1014.2 0.0
26/02:30am 15.1 13.9 10.3 73 2.5 NNW 7 9 4 5 1015.4 1014.8 0.0
26/02:00am 15.0 14.8 10.6 75 2.3 N 2 6 1 3 1015.6 1015.0 0.0
26/01:30am 15.0 15.2 10.4 74 2.4 CALM 0 0 0 0 1015.7 1015.1 0.0
26/01:00am 15.6 15.6 9.9 69 3.0 CALM 0 0 0 0 1015.9 1015.3 0.0
26/12:30am 16.1 16.2 10.2 68 3.1 CALM 0 0 0 0 1016.0 1015.4 0.0
26/12:00am 16.4 15.5 9.1 62 3.8 S 4 6 2 3 1016.1 1015.5 0.0
 
Date/Time
EST
Temp
°C
App
Temp
°C
Dew
Point
°C
Rel
Hum
%
Delta-T
°C
Wind Press
QNH
hPa
Press
MSL
hPa
Rain since
9am
mm
Dir  Spd
km/h
Gust
km/h
Spd
kts
Gust
kts
25/11:30pm 16.7 15.5 9.4 62 3.8 SSE 6 7 3 4 1016.4 1015.9 0.0
25/11:00pm 17.2 15.8 8.9 58 4.3 SSE 6 7 3 4 1016.5 1016.0 0.0
25/10:30pm 18.0 16.4 8.6 54 4.9 SE 7 9 4 5 1016.6 1016.1 0.0
25/10:00pm 18.3 16.3 8.8 54 5.0 SE 9 9 5 5 1016.4 1015.9 0.0
25/09:30pm 18.6 17.1 9.1 54 5.0 SSE 7 9 4 5 1016.5 1016.0 0.0
25/09:00pm 18.8 16.9 9.0 53 5.2 SSE 9 11 5 6 1016.4 1015.9 0.0
25/08:30pm 19.5 18.5 11.0 58 4.7 S 7 9 4 5 1016.3 1015.8 0.0
25/08:00pm 19.9 18.9 11.1 57 4.9 SSE 7 9 4 5 1016.2 1015.7 0.0
25/07:30pm 20.3 19.3 11.0 55 5.1 S 7 9 4 5 1015.9 1015.3 0.0
25/07:00pm 21.5 20.4 10.6 50 6.0 SSE 7 9 4 5 1015.5 1014.9 0.0
25/06:30pm 22.6 21.2 9.4 43 7.2 SSE 7 9 4 5 1015.2 1014.6 0.0
25/06:00pm 24.5 22.6 8.9 37 8.5 SE 9 11 5 6 1015.3 1014.7 0.0
25/05:30pm 26.0 23.6 8.5 33 9.6 SE 11 13 6 7 1014.9 1014.4 0.0
25/05:00pm 26.4 23.9 8.4 32 9.8 SE 11 17 6 9 1015.0 1014.5 0.0
25/04:30pm 26.7 25.0 8.2 31 10.1 SE 7 13 4 7 1014.9 1014.4 0.0
25/04:00pm 26.5 23.7 8.5 32 9.8 SE 13 20 7 11 1014.9 1014.4 0.0
25/03:30pm 26.1 23.2 8.1 32 9.8 SE 13 20 7 11 1015.0 1014.5 0.0
25/03:00pm 25.5 22.5 7.6 32 9.6 SE 13 22 7 12 1015.4 1014.8 0.0
25/02:30pm 25.0 21.9 7.2 32 9.4 ESE 13 20 7 11 1015.5 1014.9 0.0
25/02:00pm 24.9 21.6 8.0 34 9.1 SE 15 24 8 13 1016.1 1015.5 0.0

Other Formats:

Comma delimited format used in spreadsheet applications
http://www.bom.gov.au/fwo/IDQ60801/IDQ60801.94255.axf

JavaScript Object Notation format (JSON) in row-major order
http://www.bom.gov.au/fwo/IDQ60801/IDQ60801.94255.json